Time;durP1;ratioP1;P1;durP2;ratioP2;P2;SDS_P1;SDS_P2;PMS_P1;PMS_P2;Temp;Humidity;BMP_temperature;BMP_pressure;BME280_temperature;BME280_humidity;BME280_pressure;Samples;Min_cycle;Max_cycle;Signal;HPM_P1;HPM_P2
2023/09/27 00:00:09;;;;;;;22.70;20.30;;;15.70;99.90;;;;;;5012157;28;20048;-58
2023/09/27 00:02:36;;;;;;;24.63;22.00;;;15.60;99.90;;;;;;5015994;28;20037;-57
2023/09/27 00:05:06;;;;;;;20.98;18.65;;;15.60;99.90;;;;;;5016812;28;20041;-59
2023/09/27 00:07:36;;;;;;;26.58;23.75;;;15.60;99.90;;;;;;5016110;28;20048;-57
2023/09/27 00:10:03;;;;;;;23.50;21.30;;;15.50;99.90;;;;;;4997295;28;20040;-58
2023/09/27 00:12:29;;;;;;;27.27;23.23;;;15.50;99.90;;;;;;5010287;28;20045;-58
2023/09/27 00:14:56;;;;;;;24.20;21.33;;;15.50;99.90;;;;;;5014573;28;20043;-58
2023/09/27 00:17:23;;;;;;;25.00;22.40;;;15.50;99.90;;;;;;5015647;28;20198;-58
2023/09/27 00:19:48;;;;;;;23.00;20.60;;;15.50;99.90;;;;;;5020114;28;20259;-56
2023/09/27 00:22:14;;;;;;;24.45;21.85;;;15.50;99.90;;;;;;5036556;28;20408;-58
2023/09/27 00:24:40;;;;;;;25.98;22.92;;;15.50;99.90;;;;;;5012376;28;20121;-56
2023/09/27 00:27:07;;;;;;;20.98;18.85;;;15.50;99.90;;;;;;5015806;28;20037;-58
2023/09/27 00:29:34;;;;;;;24.90;22.30;;;15.50;99.90;;;;;;5019135;28;20519;-55
2023/09/27 00:32:00;;;;;;;26.38;23.67;;;15.40;99.90;;;;;;5023554;28;20408;-58
2023/09/27 00:34:25;;;;;;;20.63;18.42;;;15.40;99.90;;;;;;5006158;28;20049;-58
2023/09/27 00:36:51;;;;;;;20.00;17.90;;;15.40;99.90;;;;;;5016007;28;20489;-58
2023/09/27 00:39:17;;;;;;;23.80;21.40;;;15.30;99.90;;;;;;5020345;28;20086;-58
2023/09/27 00:41:43;;;;;;;22.33;19.95;;;15.30;99.90;;;;;;5021009;28;20401;-56
2023/09/27 00:44:08;;;;;;;25.48;22.85;;;15.30;99.90;;;;;;5002706;28;20048;-56
2023/09/27 00:46:35;;;;;;;24.20;21.70;;;15.20;99.90;;;;;;5019799;28;20049;-57
2023/09/27 00:49:01;;;;;;;23.40;20.90;;;15.20;99.90;;;;;;5039217;28;20508;-56
2023/09/27 00:51:27;;;;;;;26.10;23.50;;;15.20;99.90;;;;;;4992136;28;20496;-57
2023/09/27 00:53:54;;;;;;;27.02;22.40;;;15.20;99.90;;;;;;5018929;28;20045;-58
2023/09/27 00:56:21;;;;;;;25.70;22.88;;;15.20;99.90;;;;;;5038364;28;20060;-58
2023/09/27 00:58:47;;;;;;;22.42;20.15;;;15.20;99.90;;;;;;5002413;28;20497;-58
2023/09/27 01:01:14;;;;;;;25.73;21.83;;;15.10;99.90;;;;;;5021132;28;20056;-58
2023/09/27 01:03:40;;;;;;;26.05;23.30;;;15.10;99.90;;;;;;5004423;28;20042;-58
2023/09/27 01:06:07;;;;;;;22.17;19.85;;;15.10;99.90;;;;;;5021298;28;20515;-58
2023/09/27 01:08:33;;;;;;;24.05;21.08;;;15.10;99.90;;;;;;5020077;28;20045;-57
2023/09/27 01:11:00;;;;;;;24.90;22.42;;;15.10;99.90;;;;;;5004690;28;20500;-58
2023/09/27 01:13:26;;;;;;;24.83;22.17;;;15.10;99.90;;;;;;5017682;28;20047;-58
2023/09/27 01:15:52;;;;;;;24.92;22.40;;;15.10;99.90;;;;;;5019334;28;20055;-58
2023/09/27 01:18:17;;;;;;;28.15;23.42;;;15.10;99.90;;;;;;5023533;28;20041;-58
2023/09/27 01:20:43;;;;;;;25.20;22.65;;;15.10;99.90;;;;;;5039522;28;20044;-57
2023/09/27 01:23:09;;;;;;;22.90;20.45;;;15.20;99.90;;;;;;5020390;28;20507;-57
2023/09/27 01:25:38;;;;;;;28.30;24.05;;;15.20;99.90;;;;;;5018787;28;20522;-57
2023/09/27 01:28:08;;;;;;;29.67;26.48;;;15.20;99.90;;;;;;5037739;28;20033;-58
2023/09/27 01:30:35;;;;;;;23.85;21.42;;;15.20;99.90;;;;;;5030898;28;20404;-58
2023/09/27 01:33:11;;;;;;;26.38;21.63;;;15.20;99.90;;;;;;5021483;28;20424;-57
2023/09/27 01:35:42;;;;;;;24.40;21.50;;;15.20;99.90;;;;;;5013781;28;20047;-57
2023/09/27 01:38:09;;;;;;;26.80;23.33;;;15.10;99.90;;;;;;5019988;28;20069;-58
2023/09/27 01:40:40;;;;;;;22.30;19.92;;;15.10;99.90;;;;;;5000197;28;20103;-57
2023/09/27 01:43:07;;;;;;;27.42;23.65;;;15.10;99.90;;;;;;5025841;28;20124;-58
2023/09/27 01:45:33;;;;;;;25.98;22.30;;;15.10;99.90;;;;;;5029815;28;20127;-57
2023/09/27 01:48:00;;;;;;;26.55;23.75;;;15.10;99.90;;;;;;5029080;28;20334;-57
2023/09/27 01:50:26;;;;;;;23.38;20.88;;;15.00;99.90;;;;;;5044460;28;20361;-58
2023/09/27 01:52:53;;;;;;;24.33;21.13;;;15.10;99.90;;;;;;5005164;28;20128;-57
2023/09/27 01:55:20;;;;;;;21.13;18.60;;;15.10;99.90;;;;;;5017742;28;20516;-58
2023/09/27 01:57:46;;;;;;;22.65;20.25;;;15.10;99.90;;;;;;5015979;28;20548;-56
2023/09/27 02:00:14;;;;;;;23.40;20.92;;;15.10;99.90;;;;;;5017651;28;20345;-57
2023/09/27 02:06:23;;;;;;;22.33;20.02;;;15.00;99.90;;;;;;5035342;28;20523;-57
2023/09/27 02:08:52;;;;;;;23.45;20.95;;;15.00;99.90;;;;;;5020706;28;20127;-58
2023/09/27 02:11:19;;;;;;;24.00;21.45;;;14.90;99.90;;;;;;5001318;28;20045;-58
2023/09/27 02:13:45;;;;;;;24.50;21.92;;;14.90;99.90;;;;;;5023189;28;20378;-58
2023/09/27 02:16:11;;;;;;;24.48;21.98;;;14.90;99.90;;;;;;5025348;28;20067;-58
2023/09/27 02:18:36;;;;;;;23.10;20.70;;;14.90;99.90;;;;;;5007111;28;20045;-57
2023/09/27 02:21:03;;;;;;;22.50;20.17;;;14.90;99.90;;;;;;5003191;28;20049;-56
2023/09/27 02:23:29;;;;;;;20.42;18.33;;;14.80;99.90;;;;;;5019785;28;20078;-56
2023/09/27 02:25:58;;;;;;;22.33;18.48;;;14.80;99.90;;;;;;5021348;28;20037;-58
2023/09/27 02:28:24;;;;;;;21.30;19.10;;;14.80;99.90;;;;;;5016219;28;20761;-57
2023/09/27 02:30:49;;;;;;;24.95;22.35;;;14.80;99.90;;;;;;5037619;28;20538;-58
2023/09/27 02:33:16;;;;;;;24.60;22.00;;;14.70;99.90;;;;;;5016864;28;20111;-58
2023/09/27 02:35:42;;;;;;;22.95;20.55;;;14.70;99.90;;;;;;5012084;28;20040;-58
2023/09/27 02:38:09;;;;;;;26.77;22.13;;;14.70;99.90;;;;;;5017010;28;20128;-58
2023/09/27 02:40:34;;;;;;;24.02;21.08;;;14.60;99.90;;;;;;5020474;28;20481;-58
2023/09/27 02:43:00;;;;;;;23.20;20.70;;;14.60;99.90;;;;;;4988864;28;20407;-58
2023/09/27 02:45:26;;;;;;;21.08;18.27;;;14.60;99.90;;;;;;5018850;28;20041;-58
2023/09/27 02:47:52;;;;;;;27.27;24.38;;;14.60;99.90;;;;;;5014838;28;20362;-58
2023/09/27 02:50:18;;;;;;;26.77;23.27;;;14.60;99.90;;;;;;5015089;28;20456;-58
2023/09/27 02:52:44;;;;;;;26.20;23.42;;;14.60;99.90;;;;;;5014962;28;20114;-58
2023/09/27 02:55:10;;;;;;;28.35;22.52;;;14.60;99.90;;;;;;5020069;28;20048;-57
2023/09/27 02:57:36;;;;;;;27.08;24.40;;;14.60;99.90;;;;;;5016131;28;20045;-58
2023/09/27 03:00:04;;;;;;;25.77;22.98;;;14.60;99.90;;;;;;5020608;28;20171;-57
2023/09/27 03:02:33;;;;;;;27.08;24.23;;;14.50;99.90;;;;;;5017541;28;20048;-58
2023/09/27 03:04:59;;;;;;;22.50;20.15;;;14.50;99.90;;;;;;5005733;28;20048;-58
2023/09/27 03:07:24;;;;;;;22.85;20.55;;;14.50;99.90;;;;;;4995532;28;20037;-58
2023/09/27 03:09:50;;;;;;;26.65;23.90;;;14.50;99.90;;;;;;5019039;28;20110;-58
2023/09/27 03:12:16;;;;;;;23.98;21.60;;;14.50;99.90;;;;;;5036988;28;20132;-57
2023/09/27 03:14:42;;;;;;;19.50;17.50;;;14.40;99.90;;;;;;5016991;28;20131;-58
2023/09/27 03:17:07;;;;;;;26.10;23.30;;;14.40;99.90;;;;;;5018613;28;20684;-58
2023/09/27 03:19:33;;;;;;;19.08;17.23;;;14.40;99.90;;;;;;5015464;28;20045;-58
2023/09/27 03:21:59;;;;;;;23.15;20.83;;;14.40;99.90;;;;;;5000445;28;20079;-58
2023/09/27 03:24:26;;;;;;;26.02;23.23;;;14.40;99.90;;;;;;5016047;28;20176;-58
2023/09/27 03:26:52;;;;;;;27.02;24.35;;;14.40;99.90;;;;;;5019819;28;20033;-58
2023/09/27 03:29:18;;;;;;;25.75;23.00;;;14.40;99.90;;;;;;5014871;28;20519;-58
2023/09/27 03:31:44;;;;;;;27.13;22.23;;;14.40;99.90;;;;;;4992265;28;20080;-58
2023/09/27 03:34:09;;;;;;;26.58;23.63;;;14.40;99.90;;;;;;5013886;28;20072;-58
2023/09/27 03:36:35;;;;;;;20.48;18.42;;;14.40;99.90;;;;;;5016377;28;20125;-58
2023/09/27 03:39:01;;;;;;;24.77;22.20;;;14.40;99.90;;;;;;4987474;28;20037;-58
2023/09/27 03:41:26;;;;;;;24.08;21.58;;;14.40;99.90;;;;;;5017015;28;20495;-58
2023/09/27 03:43:52;;;;;;;26.15;23.45;;;14.40;99.90;;;;;;5018397;28;20048;-58
2023/09/27 03:46:19;;;;;;;27.02;24.35;;;14.40;99.90;;;;;;5008979;28;20052;-58
2023/09/27 03:48:44;;;;;;;22.13;19.80;;;14.40;99.90;;;;;;5006332;28;20292;-58
2023/09/27 03:51:10;;;;;;;26.42;23.60;;;14.40;99.90;;;;;;5037018;28;20037;-58
2023/09/27 03:53:36;;;;;;;23.92;20.77;;;14.30;99.90;;;;;;5020054;28;20042;-58
2023/09/27 03:56:01;;;;;;;23.75;21.45;;;14.30;99.90;;;;;;5022728;28;20804;-58
2023/09/27 03:58:27;;;;;;;24.88;22.23;;;14.30;99.90;;;;;;5015461;28;20045;-58
2023/09/27 04:00:53;;;;;;;26.15;23.42;;;14.30;99.90;;;;;;5037879;28;20061;-57
2023/09/27 04:03:20;;;;;;;23.52;20.55;;;14.30;99.90;;;;;;5016329;28;20096;-58
2023/09/27 04:05:46;;;;;;;24.75;22.13;;;14.30;99.90;;;;;;5013517;28;20423;-58
2023/09/27 04:08:12;;;;;;;25.30;22.38;;;14.30;99.90;;;;;;5019669;28;20037;-58
2023/09/27 04:10:38;;;;;;;24.55;22.05;;;14.20;99.90;;;;;;5006677;28;20072;-58
2023/09/27 04:13:04;;;;;;;20.23;18.23;;;14.20;99.90;;;;;;5022500;28;20050;-58
2023/09/27 04:15:30;;;;;;;28.92;25.67;;;14.10;99.90;;;;;;5020443;28;20066;-57
2023/09/27 04:17:55;;;;;;;27.60;23.90;;;14.10;99.90;;;;;;5022683;28;20060;-57
2023/09/27 04:20:21;;;;;;;24.80;22.17;;;14.10;99.90;;;;;;5009660;28;20056;-54
2023/09/27 04:22:48;;;;;;;22.90;20.55;;;14.00;99.90;;;;;;5019657;28;20052;-56
2023/09/27 04:25:15;;;;;;;30.20;25.70;;;14.00;99.90;;;;;;5016303;28;20033;-58
2023/09/27 04:27:49;;;;;;;26.00;23.20;;;13.90;99.90;;;;;;5021772;28;20034;-58
2023/09/27 04:30:19;;;;;;;23.13;20.77;;;13.90;99.90;;;;;;5020170;28;20043;-56
2023/09/27 04:32:47;;;;;;;26.58;23.77;;;13.90;99.90;;;;;;5003083;28;20457;-55
2023/09/27 04:35:13;;;;;;;25.63;22.80;;;13.80;99.90;;;;;;5040130;28;20413;-56
2023/09/27 04:37:39;;;;;;;26.08;23.38;;;13.80;99.90;;;;;;5018196;28;20041;-58
2023/09/27 04:40:12;;;;;;;26.08;23.25;;;13.80;99.90;;;;;;5019721;28;20051;-57
2023/09/27 04:42:39;;;;;;;26.95;24.13;;;13.80;99.90;;;;;;5024454;28;20132;-57
2023/09/27 04:45:06;;;;;;;28.17;24.85;;;13.80;99.90;;;;;;5015568;28;20045;-57
2023/09/27 04:47:32;;;;;;;22.45;20.15;;;13.80;99.90;;;;;;5016756;28;20548;-58
2023/09/27 04:49:58;;;;;;;28.15;25.25;;;13.80;99.90;;;;;;5020779;28;20037;-57
2023/09/27 04:52:24;;;;;;;28.88;23.80;;;13.80;99.90;;;;;;5019287;28;20049;-58
2023/09/27 04:54:59;;;;;;;27.40;23.42;;;13.90;99.90;;;;;;5025844;28;20396;-59
2023/09/27 04:57:25;;;;;;;28.50;25.50;;;13.80;99.90;;;;;;5019076;28;20065;-58
2023/09/27 04:59:52;;;;;;;27.75;24.20;;;13.80;99.90;;;;;;5002328;28;20088;-58
2023/09/27 05:02:19;;;;;;;32.42;27.75;;;13.80;99.90;;;;;;5018493;28;20227;-58
2023/09/27 05:04:45;;;;;;;28.73;25.77;;;13.70;99.90;;;;;;5020907;28;20420;-58
2023/09/27 05:07:11;;;;;;;27.45;24.25;;;13.70;99.90;;;;;;5022289;28;20037;-58
2023/09/27 05:09:37;;;;;;;27.60;24.73;;;13.70;99.90;;;;;;5021267;28;20046;-58
2023/09/27 05:12:03;;;;;;;29.83;24.65;;;13.70;99.90;;;;;;5032922;28;20309;-58
2023/09/27 05:14:29;;;;;;;33.42;26.05;;;13.70;99.90;;;;;;5014387;28;20036;-58
2023/09/27 05:16:54;;;;;;;31.77;27.55;;;13.70;99.90;;;;;;5029566;28;20037;-58
2023/09/27 05:19:20;;;;;;;25.33;21.25;;;13.60;99.90;;;;;;5023617;28;20047;-58
2023/09/27 05:21:46;;;;;;;20.73;18.63;;;13.60;99.90;;;;;;5021004;28;20037;-57
2023/09/27 05:24:11;;;;;;;26.52;23.77;;;13.60;99.90;;;;;;5012949;28;20407;-58
2023/09/27 05:26:37;;;;;;;23.05;20.75;;;13.60;99.90;;;;;;5018880;28;20037;-56
2023/09/27 05:29:03;;;;;;;25.90;23.23;;;13.60;99.90;;;;;;5021788;28;20098;-57
2023/09/27 05:31:29;;;;;;;31.83;27.48;;;13.60;99.90;;;;;;5004014;28;20317;-57
2023/09/27 05:33:54;;;;;;;27.63;24.73;;;13.70;99.90;;;;;;5043123;28;20043;-57
2023/09/27 05:36:20;;;;;;;37.03;30.33;;;13.60;99.90;;;;;;5025173;28;20045;-58
2023/09/27 05:38:46;;;;;;;29.95;26.75;;;13.60;99.90;;;;;;5006727;28;20136;-58
2023/09/27 05:41:12;;;;;;;30.33;27.02;;;13.60;99.90;;;;;;5018347;28;20075;-58
2023/09/27 05:43:37;;;;;;;27.65;24.77;;;13.60;99.90;;;;;;5023587;28;20142;-58
2023/09/27 05:46:03;;;;;;;27.38;24.42;;;13.60;99.90;;;;;;5022915;28;20040;-58
2023/09/27 05:48:30;;;;;;;30.52;27.33;;;13.60;99.90;;;;;;5008390;28;20044;-58
2023/09/27 05:50:56;;;;;;;30.17;26.73;;;13.60;99.90;;;;;;5018997;28;20522;-56
2023/09/27 05:53:22;;;;;;;30.88;27.58;;;13.60;99.90;;;;;;5022337;28;20033;-57
2023/09/27 05:55:48;;;;;;;30.30;27.20;;;13.60;99.90;;;;;;5017986;28;20037;-57
2023/09/27 05:58:14;;;;;;;32.95;29.55;;;13.60;99.90;;;;;;5021452;28;20463;-58
2023/09/27 06:00:46;;;;;;;25.02;22.25;;;13.70;99.90;;;;;;4990872;28;20051;-57
2023/09/27 06:03:12;;;;;;;32.78;29.25;;;13.70;99.90;;;;;;4990667;28;20730;-58
2023/09/27 06:05:38;;;;;;;30.80;24.88;;;13.70;99.90;;;;;;5004083;28;20066;-58
2023/09/27 06:08:04;;;;;;;31.58;27.50;;;13.70;99.90;;;;;;5017319;28;20429;-56
2023/09/27 06:10:30;;;;;;;28.85;25.75;;;13.70;99.90;;;;;;5021714;28;20049;-57
2023/09/27 06:12:56;;;;;;;29.63;26.17;;;13.80;99.90;;;;;;5015256;28;20040;-58
2023/09/27 06:15:22;;;;;;;26.23;22.85;;;13.80;99.90;;;;;;5014819;28;20051;-58
2023/09/27 06:17:48;;;;;;;24.20;21.67;;;13.80;99.90;;;;;;5020093;28;20037;-58
2023/09/27 06:20:22;;;;;;;27.08;23.83;;;13.80;99.90;;;;;;5005770;28;20408;-53
2023/09/27 06:22:54;;;;;;;31.00;27.63;;;13.80;99.90;;;;;;5016283;28;20169;-57
2023/09/27 06:25:23;;;;;;;30.33;26.38;;;13.80;99.90;;;;;;5009992;28;20082;-57
2023/09/27 06:27:48;;;;;;;30.10;27.10;;;13.90;99.90;;;;;;5038509;28;20040;-58
2023/09/27 06:30:15;;;;;;;25.38;22.73;;;13.90;99.90;;;;;;5017896;28;20037;-58
2023/09/27 06:32:41;;;;;;;38.38;30.63;;;14.00;99.90;;;;;;5019452;28;20110;-58
2023/09/27 06:35:13;;;;;;;27.63;24.85;;;14.10;99.90;;;;;;5019972;28;20040;-57
2023/09/27 06:37:40;;;;;;;32.60;29.08;;;14.10;99.90;;;;;;5001694;28;20037;-58
2023/09/27 06:40:09;;;;;;;32.00;28.63;;;14.30;99.90;;;;;;5017239;28;20056;-57
2023/09/27 06:42:36;;;;;;;35.15;31.45;;;14.40;99.90;;;;;;5019367;28;20076;-58
2023/09/27 06:45:02;;;;;;;33.78;30.23;;;14.50;99.90;;;;;;5000859;28;20045;-58
2023/09/27 06:47:28;;;;;;;35.83;31.50;;;14.70;99.90;;;;;;5018634;28;20049;-57
2023/09/27 06:49:55;;;;;;;32.08;27.42;;;14.90;99.90;;;;;;5011613;28;22153;-58
2023/09/27 06:52:22;;;;;;;35.78;31.67;;;15.00;99.90;;;;;;5017982;28;20079;-57
2023/09/27 06:54:48;;;;;;;36.38;32.33;;;15.00;99.90;;;;;;5018577;28;20717;-58
2023/09/27 06:57:14;;;;;;;33.78;30.08;;;15.00;99.90;;;;;;5018028;28;20092;-58
2023/09/27 06:59:40;;;;;;;32.58;29.10;;;15.10;99.90;;;;;;5015088;28;20052;-58
2023/09/27 07:02:08;;;;;;;32.92;29.45;;;15.20;99.90;;;;;;5004114;28;20134;-59
2023/09/27 07:04:34;;;;;;;37.80;32.08;;;15.30;99.90;;;;;;5001832;28;20047;-58
2023/09/27 07:07:00;;;;;;;34.90;30.58;;;15.30;99.90;;;;;;5016791;28;20036;-57
2023/09/27 07:09:25;;;;;;;35.00;31.33;;;15.40;99.90;;;;;;5015558;28;21973;-58
2023/09/27 07:11:52;;;;;;;34.70;31.00;;;15.50;99.90;;;;;;5022408;28;20045;-58
2023/09/27 07:14:19;;;;;;;31.52;28.17;;;15.60;99.90;;;;;;5015443;28;20052;-58
2023/09/27 07:16:46;;;;;;;33.08;29.73;;;15.70;99.90;;;;;;5011181;28;20378;-58
2023/09/27 07:19:13;;;;;;;39.67;31.92;;;15.70;99.90;;;;;;5003023;28;20037;-59
2023/09/27 07:21:39;;;;;;;32.15;28.80;;;15.80;99.90;;;;;;5024049;28;20277;-59
2023/09/27 07:24:04;;;;;;;37.00;33.03;;;15.80;99.90;;;;;;5041267;28;20493;-58
2023/09/27 07:26:30;;;;;;;34.47;30.88;;;15.80;99.90;;;;;;5014624;28;20082;-58
2023/09/27 07:28:56;;;;;;;34.33;30.67;;;15.80;99.90;;;;;;5043365;28;20184;-58
2023/09/27 07:31:21;;;;;;;35.30;31.60;;;15.80;99.90;;;;;;5018362;28;20036;-58
2023/09/27 07:33:54;;;;;;;32.55;29.13;;;15.90;99.90;;;;;;4996673;28;20053;-59
2023/09/27 07:36:24;;;;;;;34.20;30.45;;;15.90;99.90;;;;;;5027456;28;20045;-58
2023/09/27 07:38:57;;;;;;;33.83;29.55;;;15.90;99.90;;;;;;5003654;28;20495;-59
2023/09/27 07:41:24;;;;;;;32.78;28.77;;;15.90;99.90;;;;;;5014113;28;20044;-59
2023/09/27 07:43:50;;;;;;;32.25;28.73;;;15.90;99.90;;;;;;5026342;28;20520;-59
2023/09/27 07:46:17;;;;;;;33.80;29.95;;;16.00;99.90;;;;;;5025939;28;20116;-59
2023/09/27 07:48:44;;;;;;;32.92;29.60;;;16.00;99.90;;;;;;5025602;28;20408;-59
2023/09/27 07:51:15;;;;;;;33.70;30.08;;;16.00;99.90;;;;;;5008785;28;20523;-58
2023/09/27 07:53:40;;;;;;;36.20;31.23;;;16.10;99.90;;;;;;5019848;28;20570;-58
2023/09/27 07:56:09;;;;;;;32.53;29.13;;;16.20;99.90;;;;;;5008993;28;20159;-59
2023/09/27 07:58:36;;;;;;;36.00;32.28;;;16.30;99.90;;;;;;5042860;28;20045;-59
2023/09/27 08:01:03;;;;;;;38.17;33.40;;;16.40;99.90;;;;;;5025134;28;20039;-59
2023/09/27 08:03:29;;;;;;;33.50;29.88;;;16.50;99.90;;;;;;5032334;28;20110;-59
2023/09/27 08:05:54;;;;;;;36.22;30.48;;;16.70;99.90;;;;;;5007765;28;20461;-58
2023/09/27 08:08:21;;;;;;;36.10;32.30;;;16.80;99.90;;;;;;5032324;28;20291;-58
2023/09/27 08:10:49;;;;;;;37.33;30.73;;;16.90;99.90;;;;;;5048325;28;20071;-58
2023/09/27 08:13:17;;;;;;;34.45;30.13;;;17.10;99.90;;;;;;5010025;28;20029;-58
2023/09/27 08:15:46;;;;;;;34.83;29.67;;;17.10;99.90;;;;;;5026122;28;20375;-58
2023/09/27 08:18:12;;;;;;;35.05;29.55;;;17.30;99.90;;;;;;5026803;28;20463;-57
2023/09/27 08:20:38;;;;;;;32.78;28.55;;;17.40;99.90;;;;;;5047572;28;20467;-58
2023/09/27 08:23:04;;;;;;;33.47;29.80;;;17.50;99.90;;;;;;5039589;28;20037;-59
2023/09/27 08:25:30;;;;;;;34.40;30.48;;;17.50;99.90;;;;;;5029109;28;20041;-57
2023/09/27 08:27:56;;;;;;;36.88;29.40;;;17.60;99.90;;;;;;5023139;28;20381;-58
2023/09/27 08:30:22;;;;;;;33.67;29.48;;;17.70;99.90;;;;;;5024357;28;20124;-58
2023/09/27 08:32:48;;;;;;;32.75;26.80;;;17.70;99.90;;;;;;5026996;28;20443;-58
2023/09/27 08:35:14;;;;;;;31.92;27.30;;;17.80;99.90;;;;;;5022792;28;20396;-58
2023/09/27 08:37:40;;;;;;;33.85;27.85;;;17.90;99.90;;;;;;5026059;28;20072;-58
2023/09/27 08:40:12;;;;;;;34.33;30.60;;;18.00;99.90;;;;;;5029913;28;20033;-58
2023/09/27 08:42:40;;;;;;;30.45;27.15;;;18.20;99.90;;;;;;5024269;28;20055;-58
2023/09/27 08:45:14;;;;;;;31.48;26.42;;;18.40;99.90;;;;;;5027610;28;20209;-58
2023/09/27 08:47:42;;;;;;;29.30;26.30;;;18.50;99.90;;;;;;5028250;28;20041;-58
2023/09/27 08:50:13;;;;;;;36.88;30.40;;;18.70;99.90;;;;;;5030416;28;20047;-58
2023/09/27 08:52:45;;;;;;;41.58;37.08;;;18.70;99.90;;;;;;5025666;28;20041;-57
2023/09/27 08:55:12;;;;;;;37.55;33.65;;;18.80;99.90;;;;;;5047619;28;20033;-59
2023/09/27 08:57:43;;;;;;;30.42;27.17;;;18.90;99.90;;;;;;5031131;28;20130;-58
2023/09/27 09:00:13;;;;;;;29.75;26.42;;;18.90;99.90;;;;;;5011801;28;20052;-58
2023/09/27 09:02:43;;;;;;;28.35;25.25;;;18.90;99.90;;;;;;5006322;28;20076;-58
2023/09/27 09:05:11;;;;;;;29.75;22.98;;;19.00;99.90;;;;;;5023906;28;20055;-58
2023/09/27 09:07:42;;;;;;;26.38;23.58;;;19.00;99.90;;;;;;5029142;28;20056;-58
2023/09/27 09:10:17;;;;;;;29.88;22.02;;;19.10;99.90;;;;;;5051606;28;20322;-58
2023/09/27 09:12:45;;;;;;;29.33;23.98;;;19.10;99.90;;;;;;5028974;28;20067;-58
2023/09/27 09:15:26;;;;;;;23.77;21.17;;;19.30;99.90;;;;;;5024985;28;20045;-58
2023/09/27 09:17:57;;;;;;;24.05;21.20;;;19.40;99.90;;;;;;5049149;28;20044;-58
2023/09/27 09:20:28;;;;;;;25.17;21.77;;;19.50;99.90;;;;;;5027029;28;20124;-58
2023/09/27 09:22:57;;;;;;;28.20;21.33;;;19.70;99.90;;;;;;5028433;28;20048;-58
2023/09/27 09:25:23;;;;;;;25.67;20.27;;;19.70;99.90;;;;;;5032540;28;20063;-57
2023/09/27 09:28:08;;;;;;;27.40;22.15;;;19.70;99.90;;;;;;5032947;28;20033;-58
2023/09/27 09:30:39;;;;;;;26.95;20.02;;;19.80;99.90;;;;;;5013250;28;20052;-59
2023/09/27 09:33:22;;;;;;;21.65;18.58;;;19.90;99.90;;;;;;5027089;28;20048;-58
2023/09/27 09:35:48;;;;;;;24.83;20.65;;;20.00;99.90;;;;;;5026358;28;20504;-58
2023/09/27 09:38:30;;;;;;;22.13;18.95;;;20.00;99.90;;;;;;5028624;28;20047;-58
2023/09/27 09:40:59;;;;;;;24.60;19.17;;;20.00;99.90;;;;;;5023862;28;20037;-58
2023/09/27 09:43:28;;;;;;;25.55;20.08;;;20.00;99.90;;;;;;5023073;28;20221;-58
2023/09/27 09:45:54;;;;;;;22.88;19.00;;;20.00;99.90;;;;;;5022742;28;20052;-58
2023/09/27 09:48:21;;;;;;;21.70;17.80;;;20.00;99.90;;;;;;5012949;28;20037;-58
2023/09/27 09:50:49;;;;;;;20.25;16.38;;;20.00;99.90;;;;;;5008367;28;20128;-58
2023/09/27 09:53:16;;;;;;;25.00;19.15;;;20.00;99.90;;;;;;5019332;28;20057;-58
2023/09/27 09:55:46;;;;;;;23.75;20.17;;;20.10;99.90;;;;;;5001003;28;20472;-56
2023/09/27 09:58:39;;;;;;;25.58;17.48;;;20.00;99.90;;;;;;5015404;28;20072;-58
2023/09/27 10:01:07;;;;;;;23.70;16.90;;;20.00;99.90;;;;;;5019343;28;20471;-58
2023/09/27 10:03:34;;;;;;;21.98;18.05;;;19.90;99.90;;;;;;5038031;28;20059;-58
2023/09/27 10:06:01;;;;;;;22.15;16.15;;;20.00;99.90;;;;;;5001296;28;20033;-58
2023/09/27 10:08:33;;;;;;;23.15;17.67;;;19.90;99.90;;;;;;5034319;28;20045;-58
2023/09/27 10:11:00;;;;;;;27.40;18.10;;;19.80;99.90;;;;;;5015541;28;20492;-58
2023/09/27 10:13:26;;;;;;;27.67;18.58;;;19.80;99.90;;;;;;5016625;28;20400;-58
2023/09/27 10:15:53;;;;;;;26.20;17.02;;;19.80;99.90;;;;;;5019505;28;20157;-58
2023/09/27 10:18:21;;;;;;;20.15;16.85;;;19.80;99.90;;;;;;5034480;28;20049;-58
2023/09/27 10:21:05;;;;;;;23.98;16.00;;;19.80;99.90;;;;;;5034518;28;20052;-58
2023/09/27 10:23:46;;;;;;;24.77;16.92;;;19.80;99.90;;;;;;5014324;28;20049;-57
2023/09/27 10:26:33;;;;;;;21.00;12.93;;;19.80;99.90;;;;;;5001674;28;20052;-58
2023/09/27 10:29:06;;;;;;;16.55;12.32;;;19.80;99.90;;;;;;5014905;28;20132;-58
2023/09/27 10:31:33;;;;;;;19.23;12.88;;;19.80;99.90;;;;;;5018870;28;20091;-58
2023/09/27 10:33:59;;;;;;;20.58;13.10;;;19.80;99.90;;;;;;5005179;28;20037;-57
2023/09/27 10:36:25;;;;;;;15.60;11.60;;;19.70;99.90;;;;;;5022072;28;20640;-58
2023/09/27 10:38:50;;;;;;;17.85;12.50;;;19.80;99.90;;;;;;5018896;28;20124;-58
2023/09/27 10:41:31;;;;;;;16.20;12.63;;;19.80;99.90;;;;;;5013630;28;20195;-58
2023/09/27 10:43:57;;;;;;;21.10;12.38;;;19.80;99.90;;;;;;4996303;28;20063;-58
2023/09/27 10:46:24;;;;;;;19.40;12.27;;;19.80;99.90;;;;;;5034181;28;20497;-58
2023/09/27 10:49:00;;;;;;;18.27;11.00;;;19.80;99.90;;;;;;5016924;28;20164;-58
2023/09/27 10:51:26;;;;;;;15.10;11.20;;;19.90;99.90;;;;;;5013934;28;20041;-57
2023/09/27 10:53:55;;;;;;;18.58;12.48;;;20.00;99.90;;;;;;4997216;28;20083;-58
2023/09/27 10:56:21;;;;;;;17.08;11.32;;;20.00;99.90;;;;;;5019177;28;20053;-58
2023/09/27 10:58:51;;;;;;;18.80;11.88;;;20.00;99.90;;;;;;5013055;28;20045;-58
2023/09/27 11:01:22;;;;;;;15.32;13.57;;;20.00;99.90;;;;;;5028626;28;20044;-58
2023/09/27 11:03:56;;;;;;;21.23;13.15;;;20.10;99.90;;;;;;5000465;28;20111;-58
2023/09/27 11:06:22;;;;;;;17.40;12.15;;;20.00;99.90;;;;;;5018208;28;20045;-58
2023/09/27 11:08:48;;;;;;;18.48;13.93;;;20.00;99.90;;;;;;5015876;28;20045;-57
2023/09/27 11:11:14;;;;;;;17.25;13.02;;;20.10;99.90;;;;;;5019460;28;20523;-58
2023/09/27 11:13:44;;;;;;;20.05;13.85;;;20.10;99.90;;;;;;5018820;28;20041;-58
2023/09/27 11:16:12;;;;;;;18.73;13.55;;;20.10;99.90;;;;;;5028918;28;20179;-58
2023/09/27 11:18:46;;;;;;;16.85;12.32;;;20.10;99.90;;;;;;4998967;28;20401;-58
2023/09/27 11:21:12;;;;;;;;;;;20.10;99.90;;;;;;5015442;28;20326;-58
2023/09/27 11:23:58;;;;;;;16.35;11.18;;;20.10;99.90;;;;;;5016452;28;20311;-58
2023/09/27 11:26:28;;;;;;;15.50;11.90;;;20.20;99.90;;;;;;5014418;28;20112;-58
2023/09/27 11:28:57;;;;;;;11.82;9.85;;;20.20;99.90;;;;;;5018163;28;20123;-58
2023/09/27 11:31:23;;;;;;;15.25;10.48;;;20.20;99.90;;;;;;5010185;28;20705;-58
2023/09/27 11:33:50;;;;;;;17.13;10.38;;;20.20;99.90;;;;;;5013309;28;20530;-58
2023/09/27 11:36:15;;;;;;;14.80;9.25;;;20.20;99.90;;;;;;5016669;28;20045;-58
2023/09/27 11:38:50;;;;;;;15.43;9.23;;;20.30;99.90;;;;;;4999493;28;20140;-58
2023/09/27 11:41:17;;;;;;;13.45;8.27;;;20.30;99.90;;;;;;5009027;28;20069;-58
2023/09/27 11:43:43;;;;;;;12.07;8.05;;;20.20;99.90;;;;;;5011833;28;20045;-58
2023/09/27 11:46:09;;;;;;;15.18;8.38;;;20.20;99.90;;;;;;5006459;28;20067;-58
2023/09/27 11:48:35;;;;;;;14.02;8.57;;;20.30;99.90;;;;;;5016873;28;20277;-57
2023/09/27 11:51:02;;;;;;;16.33;8.23;;;20.30;99.90;;;;;;5002269;28;20037;-58
2023/09/27 11:53:28;;;;;;;13.23;7.75;;;20.40;99.90;;;;;;5001347;28;20049;-58
2023/09/27 11:55:55;;;;;;;12.77;8.15;;;20.50;99.90;;;;;;5022407;28;20071;-58
2023/09/27 11:58:22;;;;;;;11.38;7.75;;;20.60;99.90;;;;;;5024936;28;20094;-58
2023/09/27 12:00:48;;;;;;;12.75;8.13;;;20.80;99.90;;;;;;5027414;28;20037;-59
2023/09/27 12:03:14;;;;;;;11.10;7.38;;;20.90;99.90;;;;;;5033234;28;20044;-58
2023/09/27 12:05:40;;;;;;;9.57;6.60;;;21.10;99.90;;;;;;5007292;28;20081;-62
2023/09/27 12:08:07;;;;;;;16.95;7.30;;;21.30;99.90;;;;;;5007619;28;20037;-59
2023/09/27 12:10:33;;;;;;;9.85;6.47;;;21.60;99.90;;;;;;5012017;28;20062;-59
2023/09/27 12:12:58;;;;;;;9.73;5.43;;;21.90;99.90;;;;;;5010011;28;20071;-58
2023/09/27 12:15:25;;;;;;;10.05;5.28;;;22.20;99.90;;;;;;5029329;28;20059;-59
2023/09/27 12:17:50;;;;;;;10.82;4.60;;;22.50;99.90;;;;;;5032824;28;20522;-60
2023/09/27 12:20:17;;;;;;;6.72;4.38;;;22.70;99.90;;;;;;5030507;28;20116;-60
2023/09/27 12:22:43;;;;;;;8.80;4.53;;;22.90;99.90;;;;;;5049099;28;20085;-58
2023/09/27 12:25:09;;;;;;;9.13;5.10;;;22.90;99.90;;;;;;5029087;28;20458;-60
2023/09/27 12:27:35;;;;;;;8.27;4.53;;;23.20;99.90;;;;;;5049212;28;20048;-60
2023/09/27 12:30:01;;;;;;;7.18;3.83;;;23.30;99.90;;;;;;5031086;28;20119;-58
2023/09/27 12:32:26;;;;;;;11.18;4.70;;;23.40;99.90;;;;;;5013558;28;20488;-58